ワルシャワ の空港の天気 - METARとTAF

ワルシャワ・フレデリック・ショパン空港 ( EPWA / WAW ) - ポーランド ワルシャワ
飛行場実況気象(Metar)
観測時間01/20 18:30 CET (01/20 17:30 UTC)
風向・風速西 4m/s
視程2800m
天気現象弱い霧雨 もや
全天を覆う雲 雲底高度 90m
気温0℃
湿度100%
気圧1029hPa
METAREPWA 201730Z 28007KT 250V320 2800 -DZ BR OVC003 00/M00 Q1029 R33/2///95 NOSIG
過去の天気等 Google飛行場航空写真 Wunderground天気予報

過去48時間のMETAR

飛行場予報(TAF)
発表時間: 1/20 18:30 CET (1/20 17:30 UTC)
予報対象時間: 20日19時 CET ~ 21日19時 CET
風向・風速西 4m/s
視程5,000m
天気現象もや
全天を覆う雲 雲底高度 120m
20日19時 CET ~ 21日10時 CET に 確率 40% で一時的に
視程1,500m
天気現象弱い霧雨 もや
全天の8割程度の雲 雲底高度 60m
TAF EPWA 201730Z 2018/2118 27008KT 5000 BR OVC004
PROB40 TEMPO 2018/2109 1500 -DZ BR BKN002